Flight Track Log - Related Links

Times and Time Zones

All times are in EDT time to prevent confusion due to time zone crossing. See the SLQ9743 flight status page for this flight to view local times or setup timezone preferences in your user account.

Time Position Orientation Groundspeed Altitude Reporting Facility
EDT Latitude Longitude Course Direction KTS MPH feet Rate Location/Type
Tue 02:23:19 AM 40.6500 -73.7500 51° Northeast 140 161 1,500  Level New York TRACON
Tue 02:25:40 AM 40.7186 -73.6378 51° Northeast 180 207 5,700 1,672 Climbing New York Center
Tue 02:26:40 AM 40.7558 -73.6422 355° North 151 174 7,100 1,650 Climbing New York Center
Tue 02:27:40 AM 40.8008 -73.6850 324° Northwest 159 183 9,000 1,700 Climbing New York Center
Tue 02:28:40 AM 40.8372 -73.7250 320° Northwest 181 208 10,500 1,650 Climbing New York Center
Tue 02:29:40 AM 40.8756 -73.7706 318° Northwest 181 208 12,300 1,600 Climbing New York Center
Tue 02:30:40 AM 40.8972 -73.8211 300° West 181 208 13,700 900 Climbing New York Center
Tue 02:31:40 AM 40.9228 -73.8853 298° West 189 217 14,100 150 Climbing New York Center
Tue 02:32:40 AM 40.9522 -73.9525 300° West 206 237 14,000 -50 Descending New York Center
Tue 02:33:40 AM 40.9814 -74.0228 299° West 211 243 14,000 50 Level New York Center
Tue 02:34:40 AM 41.0086 -74.0928 297° West 211 243 14,100 50 Climbing New York Center
Tue 02:35:40 AM 41.0381 -74.1603 300° West 211 243 14,100 -50 Level New York Center
Tue 02:36:40 AM 41.0653 -74.2250 299° West 211 243 14,000  Descending New York Center
Tue 02:37:40 AM 41.0964 -74.3008 299° West 211 243 14,100  Climbing New York Center
Tue 02:38:40 AM 41.1217 -74.3628 298° West 211 243 14,000 -50 Descending New York Center
Tue 02:39:40 AM 41.1547 -74.4389 300° West 211 243 14,000  Level New York Center
Tue 02:40:40 AM 41.1778 -74.5008 296° West 211 243 14,000  Level New York Center
Tue 02:41:40 AM 41.2086 -74.5769 298° West 211 243 14,000 50 Level New York Center
Tue 02:42:40 AM 41.2336 -74.6389 298° West 211 243 14,100  Climbing New York Center
Tue 02:43:40 AM 41.2622 -74.7206 295° West 216 249 14,000 -50 Descending New York Center
Tue 02:44:40 AM 41.2892 -74.7831 300° West 216 249 14,000 50 Level New York Center
Tue 02:45:40 AM 41.3200 -74.8594 298° West 223 257 14,100  Climbing New York Center
Tue 02:46:40 AM 41.3469 -74.9247 299° West 223 257 14,000 -50 Descending New York Center
Tue 02:47:40 AM 41.3772 -75.0039 297° West 218 251 14,000 -50 Level New York Center
Tue 02:48:40 AM 41.4061 -75.0722 299° West 218 251 13,900 -50 Descending New York Center
Tue 02:49:40 AM 41.4325 -75.1456 296° West 218 251 13,900  Level New York Center
Tue 02:50:40 AM 41.4572 -75.2083 298° West 218 251 13,900  Level New York Center
Tue 02:51:40 AM 41.4839 -75.2764 298° West 218 251 13,900  Level New York Center
Tue 02:52:40 AM 41.5164 -75.3533 299° West 218 251 13,900 50 Level New York Center
Tue 02:53:40 AM 41.5428 -75.4217 297° West 218 251 14,000  Climbing New York Center
Tue 02:54:40 AM 41.5675 -75.4844 298° West 218 251 13,900  Descending New York Center
Tue 02:55:40 AM 41.5917 -75.5556 294° West 218 251 14,000 50 Climbing New York Center
Tue 02:56:40 AM 41.6217 -75.6353 297° West 218 251 14,000  Level New York Center
Tue 02:57:40 AM 41.6444 -75.6925 298° West 218 251 14,000 -50 Level New York Center
Tue 02:58:40 AM 41.6783 -75.7783 298° West 218 251 13,900 -50 Descending New York Center
Tue 02:59:40 AM 41.7086 -75.8500 300° West 218 251 13,900 50 Level New York Center
Tue 03:00:40 AM 41.7347 -75.9217 296° West 218 251 14,000 50 Climbing New York Center
Tue 03:01:40 AM 41.7589 -75.9872 296° West 218 251 14,000  Level New York Center
Tue 03:02:40 AM 41.7906 -76.0678 298° West 223 257 14,000  Level New York Center
Tue 03:03:40 AM 41.8167 -76.1394 296° West 223 257 14,000  Level New York Center
Tue 03:04:40 AM 41.8444 -76.2114 297° West 223 257 14,000 -50 Level New York Center
Tue 03:05:40 AM 41.8686 -76.2772 296° West 223 257 13,900 -50 Descending New York Center
Tue 03:06:40 AM 41.8964 -76.3519 297° West 217 250 13,900  Level New York Center
Tue 03:07:40 AM 41.9300 -76.4303 300° West 222 255 13,900  Level New York Center
Tue 03:08:40 AM 41.9558 -76.5019 296° West 222 255 13,900 50 Level New York Center
Tue 03:09:40 AM 41.9836 -76.5742 297° West 222 255 14,000  Climbing New York Center
Tue 03:10:40 AM 42.0092 -76.6464 295° West 222 255 13,900  Descending New York Center
Tue 03:12:24 AM 42.0553 -76.7639 298° West 218 251 14,000 37 Climbing Cleveland Center
Tue 03:13:24 AM 42.0833 -76.8364 298° West 219 252 14,000 50 Level Cleveland Center
Tue 03:14:25 AM 42.1108 -76.9114 296° West 220 253 14,100  Climbing Cleveland Center
Tue 03:15:25 AM 42.1383 -76.9856 297° West 221 254 14,000 -50 Descending Cleveland Center
Tue 03:16:25 AM 42.1675 -77.0600 298° West 224 258 14,000  Level Cleveland Center
Tue 03:17:25 AM 42.1950 -77.1364 296° West 224 258 14,000  Level Cleveland Center
Tue 03:18:25 AM 42.2211 -77.2122 295° West 224 258 14,000  Level Cleveland Center
Tue 03:19:25 AM 42.2489 -77.2892 296° West 225 259 14,000  Level Cleveland Center
Tue 03:20:25 AM 42.2778 -77.3642 298° West 225 259 14,000  Level Cleveland Center
Tue 03:21:25 AM 42.3042 -77.4397 295° West 224 258 14,000  Level Cleveland Center
Tue 03:22:25 AM 42.3331 -77.5156 297° West 224 258 14,000  Level Cleveland Center
Tue 03:23:26 AM 42.3606 -77.5908 296° West 224 258 14,000  Level Cleveland Center
Tue 03:24:26 AM 42.3878 -77.6669 296° West 224 258 14,000  Level Cleveland Center
Tue 03:25:26 AM 42.4150 -77.7439 296° West 224 258 14,000 50 Level Cleveland Center
Tue 03:26:26 AM 42.4414 -77.8206 295° West 224 258 14,100  Climbing Cleveland Center
Tue 03:27:26 AM 42.4692 -77.8972 296° West 224 258 14,000 -50 Descending Cleveland Center
Tue 03:28:26 AM 42.4986 -77.9733 298° West 225 259 14,000  Level Cleveland Center
Tue 03:29:26 AM 42.5264 -78.0511 296° West 225 259 14,000  Level Cleveland Center
Tue 03:30:27 AM 42.5547 -78.1275 297° West 225 259 14,000  Level Cleveland Center
Tue 03:31:27 AM 42.5797 -78.2069 293° West 226 260 14,000  Level Cleveland Center
Tue 03:32:27 AM 42.6061 -78.2839 295° West 226 260 14,000  Level Cleveland Center
Tue 03:33:27 AM 42.6344 -78.3614 296° West 227 261 14,000  Level Cleveland Center
Tue 03:34:27 AM 42.6625 -78.4372 297° West 227 261 14,000  Level Cleveland Center
Tue 03:35:27 AM 42.6881 -78.5158 294° West 227 261 14,000 50 Level Cleveland Center
Tue 03:36:27 AM 42.7153 -78.5953 295° West 231 266 14,100 50 Climbing Cleveland Center
Tue 03:37:27 AM 42.7417 -78.6733 295° West 229 264 14,100 -50 Level Cleveland Center
Tue 03:38:28 AM 42.7692 -78.7511 296° West 230 265 14,000  Descending Cleveland Center
Tue 03:39:28 AM 42.7972 -78.8294 296° West 230 265 14,100  Climbing Cleveland Center
Tue 03:40:28 AM 42.8278 -78.9069 298° West 232 267 14,000 -550 Descending Cleveland Center
Tue 03:41:28 AM 42.8569 -78.9908 295° West 244 281 13,000 -850 Descending Cleveland Center
Tue 03:42:28 AM 42.8847 -79.0769 294° West 249 287 12,300 -816 Descending Cleveland Center
Tue 03:43:11 AM 42.9000 -79.1333 290° West 250 288 11,600 -757 Descending Toronto Center
Tue 03:44:11 AM 42.9333 -79.2000 304° West 250 288 11,000 -300 Descending Toronto Center
Tue 03:45:11 AM 42.9500 -79.2833 285° West 240 276 11,000 -400 Level Toronto Center
Tue 03:46:11 AM 42.9833 -79.3667 299° West 230 265 10,200 -1,100 Descending Toronto Center
Tue 03:47:11 AM 43.0167 -79.4500 299° West 240 276 8,800 -1,600 Descending Toronto Center
Tue 03:48:11 AM 43.0333 -79.5500 283° West 240 276 7,000 -1,650 Descending Toronto Center
Tue 03:49:11 AM 43.0667 -79.6167 304° West 240 276 5,500 -1,650 Descending Toronto Center
Tue 03:50:11 AM 43.1000 -79.7000 299° West 220 253 3,700 -1,250 Descending Toronto Center
Tue 03:51:11 AM 43.1167 -79.7500 295° West 200 230 3,000 -650 Descending Toronto Center
Tue 03:52:11 AM 43.1333 -79.8000 295° West 150 173 2,400 -650 Descending Toronto Center
Tue 03:53:11 AM 43.1500 -79.8333 304° West 120 138 1,700 -650 Descending Toronto Center
Tue 03:54:11 AM 43.1667 -79.8833 295° West 110 127 1,100 -600 Descending Toronto Center

Login

Don't have an account? Register now (free) for customized features, flight alerts, and more!